createdAt,value
2022-10-22T04:50:46.834Z,0.00
2022-10-22T04:51:47.961Z,0.00
2022-10-22T04:52:47.939Z,0.00
2022-10-22T04:53:47.910Z,0.00
2022-10-22T04:54:47.905Z,0.00
2022-10-22T04:55:47.912Z,0.00
2022-10-22T04:56:47.901Z,0.00
2022-10-22T04:57:47.893Z,0.00
2022-10-22T04:58:47.889Z,0.00
2022-10-22T04:59:47.882Z,0.00
2022-10-22T05:00:47.954Z,0.00
2022-10-22T05:01:47.867Z,0.00
2022-10-22T05:02:48.849Z,0.00
2022-10-22T05:03:47.854Z,0.00
2022-10-22T05:04:47.845Z,0.00
2022-10-22T05:05:47.922Z,0.00
2022-10-22T05:06:47.847Z,0.00
2022-10-22T05:07:47.830Z,0.00
2022-10-22T05:08:47.877Z,0.00
2022-10-22T05:09:47.861Z,0.00
2022-10-22T05:10:47.820Z,0.00
2022-10-22T05:11:47.816Z,0.00
2022-10-22T05:12:47.798Z,0.00
2022-10-22T05:13:48.569Z,0.00
2022-10-22T05:14:47.821Z,0.00
2022-10-22T05:15:47.782Z,0.00
2022-10-22T05:16:48.275Z,0.00
2022-10-22T05:17:47.789Z,0.00
2022-10-22T05:18:47.758Z,0.00
2022-10-22T05:19:47.750Z,0.00
2022-10-22T05:20:47.779Z,0.00
2022-10-22T05:21:47.787Z,0.00
2022-10-22T05:22:47.744Z,0.00
2022-10-22T05:23:47.729Z,0.00
2022-10-22T05:24:47.766Z,0.00
2022-10-22T05:25:47.721Z,0.00
2022-10-22T05:26:47.713Z,0.00
2022-10-22T05:27:47.702Z,0.00
2022-10-22T05:28:47.738Z,0.00
2022-10-22T05:29:47.697Z,0.00
2022-10-22T05:30:47.685Z,0.00
2022-10-22T05:31:47.681Z,0.00
2022-10-22T05:32:47.695Z,0.00
2022-10-22T05:33:47.681Z,0.00
2022-10-22T05:34:47.675Z,0.00
2022-10-22T05:35:47.674Z,0.00
2022-10-22T05:36:47.662Z,0.00
2022-10-22T05:37:47.696Z,0.00
2022-10-22T05:38:47.625Z,0.00
2022-10-22T05:39:47.638Z,0.00
2022-10-22T05:40:47.641Z,0.00
2022-10-22T05:41:47.617Z,0.00
2022-10-22T05:42:47.617Z,0.00
2022-10-22T05:43:47.601Z,0.00
2022-10-22T05:44:47.597Z,0.00
2022-10-22T05:45:47.606Z,0.00
2022-10-22T05:46:47.606Z,0.00
2022-10-22T05:47:47.593Z,0.00
2022-10-22T05:48:47.582Z,0.00
2022-10-22T05:49:47.581Z,0.00
2022-10-22T05:50:47.570Z,0.00
2022-10-22T05:51:47.557Z,0.00
2022-10-22T05:52:47.553Z,0.00
2022-10-22T05:53:47.559Z,0.00
2022-10-22T05:54:47.537Z,0.00
2022-10-22T05:55:47.526Z,0.00
2022-10-22T05:56:47.526Z,0.00
2022-10-22T05:57:47.514Z,0.00
2022-10-22T05:58:47.567Z,0.00
2022-10-22T05:59:47.499Z,0.00
2022-10-22T06:00:47.493Z,0.00
2022-10-22T06:01:47.535Z,0.00
2022-10-22T06:02:47.493Z,0.00
2022-10-22T06:03:47.514Z,0.00
2022-10-22T06:04:47.496Z,0.00
2022-10-22T06:05:47.478Z,0.00
2022-10-22T06:06:47.536Z,0.00
2022-10-22T06:07:47.460Z,0.00
2022-10-22T06:08:47.537Z,0.00
2022-10-22T06:09:47.460Z,0.00
2022-10-22T06:10:47.444Z,0.00
2022-10-22T06:11:47.450Z,0.00
2022-10-22T06:12:47.427Z,0.00
2022-10-22T06:13:47.436Z,0.00
2022-10-22T06:14:47.435Z,0.00
2022-10-22T06:15:47.419Z,0.00
2022-10-22T06:16:47.413Z,0.00
2022-10-22T06:17:47.403Z,0.00
2022-10-22T06:18:47.395Z,0.00
2022-10-22T06:19:47.406Z,0.00
2022-10-22T06:20:47.395Z,0.00
2022-10-22T06:21:47.381Z,0.00
2022-10-22T06:22:47.388Z,0.00
2022-10-22T06:23:47.374Z,5.62
2022-10-22T06:24:47.379Z,5.62
2022-10-22T06:25:47.358Z,5.62
2022-10-22T06:26:47.351Z,5.62
2022-10-22T06:27:47.355Z,5.62
2022-10-22T06:28:47.347Z,5.62
2022-10-22T06:29:47.352Z,5.62
2022-10-22T06:30:47.319Z,5.62
2022-10-22T06:31:47.329Z,5.62
2022-10-22T06:32:47.310Z,5.62
2022-10-22T06:33:47.322Z,5.62
2022-10-22T06:34:47.319Z,5.62
2022-10-22T06:35:48.054Z,11.25
2022-10-22T06:36:47.296Z,11.25
2022-10-22T06:37:47.286Z,11.25
2022-10-22T06:38:47.274Z,11.25
2022-10-22T06:39:47.270Z,11.25
2022-10-22T06:40:47.254Z,11.25
2022-10-22T06:41:47.247Z,11.25
2022-10-22T06:42:47.262Z,11.25
2022-10-22T06:43:47.231Z,11.25
2022-10-22T06:44:47.238Z,11.25
2022-10-22T06:45:47.266Z,11.25
2022-10-22T06:46:47.213Z,11.25
2022-10-22T06:47:47.226Z,11.25
2022-10-22T06:48:47.204Z,11.25
2022-10-22T06:49:47.198Z,11.25
2022-10-22T06:50:47.210Z,11.25
2022-10-22T06:51:47.189Z,11.25
2022-10-22T06:52:47.173Z,16.88
2022-10-22T06:53:47.173Z,16.88
2022-10-22T06:54:47.157Z,16.88
2022-10-22T06:55:47.197Z,16.88
2022-10-22T06:56:47.170Z,22.50
2022-10-22T06:57:47.162Z,22.50
2022-10-22T06:58:47.138Z,28.12
2022-10-22T06:59:47.141Z,33.75
2022-10-22T07:00:47.176Z,39.38
2022-10-22T07:01:47.202Z,45.00
2022-10-22T07:02:47.114Z,50.62
2022-10-22T07:03:47.109Z,61.88
2022-10-22T07:04:47.113Z,73.12
2022-10-22T07:05:47.241Z,90.00
2022-10-22T07:06:47.102Z,90.00
2022-10-22T07:07:47.088Z,84.38
2022-10-22T07:08:47.161Z,95.62
2022-10-22T07:09:47.113Z,106.88
2022-10-22T07:10:47.197Z,106.88
2022-10-22T07:11:47.068Z,106.88
2022-10-22T07:12:47.062Z,118.12
2022-10-22T07:13:47.072Z,129.38
2022-10-22T07:14:47.047Z,135.00
2022-10-22T07:15:47.113Z,168.75
2022-10-22T07:16:47.050Z,191.25
2022-10-22T07:17:47.028Z,208.12
2022-10-22T07:18:47.065Z,230.62
2022-10-22T07:19:49.698Z,208.12
2022-10-22T07:20:48.003Z,281.25
2022-10-22T07:21:47.019Z,1113.75
2022-10-22T07:22:46.987Z,1125.00
2022-10-22T07:23:47.014Z,1130.62
2022-10-22T07:24:46.975Z,1265.62
2022-10-22T07:25:46.993Z,1288.12
2022-10-22T07:26:47.027Z,1220.62
2022-10-22T07:27:46.952Z,1164.38
2022-10-22T07:28:46.979Z,1074.38
2022-10-22T07:29:46.951Z,1119.38
2022-10-22T07:30:46.953Z,1153.12
2022-10-22T07:31:46.949Z,950.62
2022-10-22T07:32:46.917Z,1198.12
2022-10-22T07:33:46.938Z,1186.88
2022-10-22T07:34:46.908Z,1254.38
2022-10-22T07:35:46.916Z,1260.00
2022-10-22T07:36:46.901Z,1209.38
2022-10-22T07:37:46.923Z,1327.50
2022-10-22T07:38:46.910Z,1372.50
2022-10-22T07:39:46.878Z,1350.00
2022-10-22T07:40:46.921Z,1350.00
2022-10-22T07:41:46.919Z,1389.38
2022-10-22T07:42:46.953Z,1355.62
2022-10-22T07:43:46.868Z,1361.25
2022-10-22T07:44:46.856Z,1428.75
2022-10-22T07:45:46.866Z,1563.75
2022-10-22T07:46:48.909Z,1552.50
2022-10-22T07:47:46.818Z,1552.50
2022-10-22T07:48:46.854Z,1591.88
2022-10-22T07:49:46.811Z,1710.00
2022-10-22T07:50:46.822Z,1816.88
2022-10-22T07:51:46.863Z,956.25
2022-10-22T07:52:46.821Z,1676.25
2022-10-22T07:53:46.794Z,1012.50
2022-10-22T07:54:46.792Z,343.12
2022-10-22T07:55:46.781Z,303.75
2022-10-22T07:56:46.773Z,236.25
2022-10-22T07:57:46.780Z,185.62
2022-10-22T07:58:46.998Z,135.00
2022-10-22T07:59:46.773Z,112.50
2022-10-22T08:00:47.771Z,101.25
2022-10-22T08:01:46.783Z,101.25
2022-10-22T08:02:47.796Z,101.25
2022-10-22T08:03:47.614Z,101.25
2022-10-22T08:04:48.233Z,101.25
2022-10-22T08:05:46.726Z,106.88
2022-10-22T08:06:47.433Z,106.88
2022-10-22T08:07:47.577Z,135.00
2022-10-22T08:08:46.747Z,146.25
2022-10-22T08:09:46.696Z,123.75
2022-10-22T08:10:46.687Z,129.38
2022-10-22T08:11:46.698Z,129.38
2022-10-22T08:12:46.679Z,112.50
2022-10-22T08:13:46.693Z,101.25
2022-10-22T08:14:46.657Z,101.25
2022-10-22T08:15:46.656Z,106.88
2022-10-22T08:16:46.632Z,106.88
2022-10-22T08:17:46.670Z,101.25
2022-10-22T08:18:46.626Z,95.62
2022-10-22T08:19:46.647Z,95.62
2022-10-22T08:20:46.626Z,101.25
2022-10-22T08:21:46.599Z,101.25
2022-10-22T08:22:46.608Z,106.88
2022-10-22T08:23:46.603Z,112.50
2022-10-22T08:24:46.632Z,123.75
2022-10-22T08:25:46.597Z,118.12
2022-10-22T08:26:46.594Z,112.50
2022-10-22T08:27:46.580Z,118.12
2022-10-22T08:28:46.572Z,129.38
2022-10-22T08:29:47.175Z,135.00
2022-10-22T08:30:46.560Z,146.25
2022-10-22T08:31:46.543Z,140.62
2022-10-22T08:32:47.680Z,118.12
2022-10-22T08:33:46.554Z,118.12
2022-10-22T08:34:46.538Z,123.75
2022-10-22T08:35:46.558Z,123.75
2022-10-22T08:36:46.521Z,118.12
2022-10-22T08:37:46.511Z,123.75
2022-10-22T08:38:46.494Z,123.75
2022-10-22T08:39:47.090Z,135.00
2022-10-22T08:40:46.540Z,140.62
2022-10-22T08:41:46.496Z,163.12
2022-10-22T08:42:46.478Z,191.25
2022-10-22T08:43:46.475Z,174.38
2022-10-22T08:44:46.452Z,146.25
2022-10-22T08:45:46.470Z,151.88
2022-10-22T08:46:46.525Z,163.12
2022-10-22T08:47:47.088Z,151.88
2022-10-22T08:48:47.477Z,168.75
2022-10-22T08:49:46.422Z,174.38
2022-10-22T08:50:46.459Z,180.00
2022-10-22T08:51:46.441Z,180.00
2022-10-22T08:52:46.447Z,202.50
2022-10-22T08:53:46.391Z,230.62
2022-10-22T08:54:47.128Z,241.88
2022-10-22T08:55:46.420Z,303.75
2022-10-22T08:56:46.416Z,219.38
2022-10-22T08:57:48.720Z,208.12
2022-10-22T08:58:47.988Z,230.62
2022-10-22T08:59:46.409Z,264.38
2022-10-22T09:00:46.384Z,258.75
2022-10-22T09:01:46.360Z,225.00
2022-10-22T09:02:46.400Z,196.88
2022-10-22T09:03:46.432Z,180.00
2022-10-22T09:04:46.354Z,168.75
2022-10-22T09:05:46.377Z,157.50
2022-10-22T09:06:49.496Z,151.88
2022-10-22T09:07:47.334Z,146.25
2022-10-22T09:08:46.377Z,151.88
2022-10-22T09:09:46.293Z,157.50
2022-10-22T09:10:46.393Z,168.75
2022-10-22T09:11:46.336Z,196.88
2022-10-22T09:12:47.139Z,270.00
2022-10-22T09:13:46.269Z,219.38
2022-10-22T09:14:46.326Z,230.62
2022-10-22T09:15:47.370Z,219.38
2022-10-22T09:16:47.259Z,202.50
2022-10-22T09:17:46.234Z,191.25
2022-10-22T09:18:46.272Z,185.62
2022-10-22T09:19:46.246Z,168.75
2022-10-22T09:20:46.214Z,163.12
2022-10-22T09:21:46.226Z,163.12
2022-10-22T09:22:46.211Z,180.00
2022-10-22T09:23:46.222Z,196.88
2022-10-22T09:24:46.202Z,236.25
2022-10-22T09:25:46.202Z,241.88
2022-10-22T09:26:46.215Z,236.25
2022-10-22T09:27:46.166Z,225.00
2022-10-22T09:28:46.175Z,213.75
2022-10-22T09:29:46.154Z,196.88
2022-10-22T09:30:46.242Z,202.50
2022-10-22T09:31:46.214Z,230.62
2022-10-22T09:32:46.144Z,236.25
2022-10-22T09:33:46.165Z,236.25
2022-10-22T09:34:46.138Z,236.25
2022-10-22T09:35:46.133Z,236.25
2022-10-22T09:36:46.112Z,258.75
2022-10-22T09:37:46.102Z,309.38
2022-10-22T09:38:46.116Z,478.12
2022-10-22T09:39:46.083Z,348.75
2022-10-22T09:40:46.079Z,376.88
2022-10-22T09:41:46.109Z,382.50
2022-10-22T09:42:46.069Z,326.25
2022-10-22T09:43:46.056Z,281.25
2022-10-22T09:44:47.783Z,281.25
2022-10-22T09:45:47.044Z,258.75
2022-10-22T09:46:46.040Z,236.25
2022-10-22T09:48:01.081Z,275.62
2022-10-22T09:48:48.017Z,275.62
2022-10-22T09:49:46.019Z,230.62
2022-10-22T09:50:46.025Z,202.50
2022-10-22T09:51:46.007Z,208.12
2022-10-22T09:52:46.022Z,208.12
2022-10-22T09:53:46.034Z,185.62
2022-10-22T09:54:46.089Z,196.88
2022-10-22T09:55:46.038Z,202.50
2022-10-22T09:56:45.984Z,202.50
2022-10-22T09:57:46.221Z,202.50
2022-10-22T09:58:45.965Z,213.75
2022-10-22T09:59:46.053Z,202.50
2022-10-22T10:00:45.969Z,202.50
2022-10-22T10:01:45.969Z,208.12
2022-10-22T10:02:45.973Z,219.38
2022-10-22T10:03:45.941Z,247.50
2022-10-22T10:04:45.933Z,270.00
2022-10-22T10:05:45.938Z,315.00
2022-10-22T10:06:45.927Z,450.00
2022-10-22T10:07:45.927Z,1788.75
2022-10-22T10:08:45.972Z,371.25
2022-10-22T10:09:45.878Z,365.62
2022-10-22T10:10:45.903Z,326.25
2022-10-22T10:11:45.890Z,309.38
2022-10-22T10:13:45.864Z,382.50
2022-10-22T10:14:45.855Z,382.50
2022-10-22T10:15:45.855Z,315.00
2022-10-22T10:16:45.845Z,241.88
2022-10-22T10:17:45.840Z,213.75
2022-10-22T10:18:45.859Z,208.12
2022-10-22T10:19:45.811Z,202.50
2022-10-22T10:20:45.833Z,230.62
2022-10-22T10:21:45.822Z,303.75
2022-10-22T10:22:45.821Z,405.00
2022-10-22T10:23:45.795Z,585.00
2022-10-22T10:24:45.782Z,562.50
2022-10-22T10:25:45.772Z,708.75
2022-10-22T10:26:45.767Z,742.50
2022-10-22T10:27:45.794Z,646.88
2022-10-22T10:28:45.759Z,2165.62
2022-10-22T10:29:45.756Z,607.50
2022-10-22T10:30:45.747Z,573.75
2022-10-22T10:31:45.739Z,821.25
2022-10-22T10:32:45.735Z,1226.25
2022-10-22T10:33:45.750Z,1873.12
2022-10-22T10:34:45.761Z,1327.50
2022-10-22T10:35:45.720Z,748.12
2022-10-22T10:36:45.721Z,810.00
2022-10-22T10:37:45.904Z,1046.25
2022-10-22T10:38:45.756Z,2064.38
2022-10-22T10:39:45.683Z,2205.00
2022-10-22T10:40:45.689Z,2182.50
2022-10-22T10:41:45.692Z,1850.62
2022-10-22T10:42:45.664Z,2728.12
2022-10-22T10:43:45.816Z,2075.62
2022-10-22T10:44:45.749Z,3611.25
2022-10-22T10:45:45.633Z,3251.25
2022-10-22T10:46:45.655Z,3240.00
2022-10-22T10:47:45.643Z,2750.62
2022-10-22T10:48:45.626Z,2086.88
2022-10-22T10:49:45.638Z,1766.25
2022-10-22T10:50:45.602Z,1777.50
2022-10-22T10:51:45.598Z,1856.25
2022-10-22T10:52:45.619Z,2424.38
2022-10-22T10:53:45.588Z,2581.88
2022-10-22T10:54:45.629Z,2604.38
2022-10-22T10:55:45.584Z,3116.25
2022-10-22T10:56:45.576Z,3588.75
2022-10-22T10:57:46.094Z,3408.75
2022-10-22T10:58:45.595Z,3661.88
2022-10-22T10:59:45.595Z,3875.62
2022-10-22T11:00:45.555Z,3481.88
2022-10-22T11:01:46.210Z,3352.50
2022-10-22T11:02:45.616Z,3515.62
2022-10-22T11:03:45.554Z,3200.62
2022-10-22T11:04:45.557Z,3099.38
2022-10-22T11:05:45.547Z,3093.75
2022-10-22T11:06:45.514Z,3358.12
2022-10-22T11:07:45.654Z,3723.75
2022-10-22T11:08:45.585Z,3206.25
2022-10-22T11:09:45.561Z,3020.62
2022-10-22T11:10:45.493Z,3166.88
2022-10-22T11:11:45.488Z,2998.12
2022-10-22T11:12:45.506Z,2896.88
2022-10-22T11:13:45.465Z,3054.38
2022-10-22T11:14:45.477Z,3099.38
2022-10-22T11:15:45.529Z,3054.38
2022-10-22T11:16:45.443Z,3088.12
2022-10-22T11:17:45.452Z,3003.75
2022-10-22T11:18:45.449Z,3200.62
2022-10-22T11:19:51.537Z,3470.62
2022-10-22T11:20:47.443Z,3346.88
2022-10-22T11:21:45.440Z,3076.88
2022-10-22T11:23:13.279Z,3105.00
2022-10-22T11:23:47.479Z,3453.75
2022-10-22T11:24:45.433Z,3335.62
2022-10-22T11:25:45.401Z,3633.75
2022-10-22T11:26:45.398Z,1659.38
2022-10-22T11:28:18.003Z,399.38
2022-10-22T11:28:45.382Z,3127.50
2022-10-22T11:29:45.370Z,2953.12
2022-10-22T11:30:45.405Z,3155.62
2022-10-22T11:31:46.140Z,3251.25
2022-10-22T11:32:45.352Z,3099.38
2022-10-22T11:33:45.362Z,2964.38
2022-10-22T11:34:45.403Z,3178.12
2022-10-22T11:35:45.338Z,3206.25
2022-10-22T11:36:45.348Z,3043.12
2022-10-22T11:37:45.341Z,2857.50
2022-10-22T11:38:45.304Z,2688.75
2022-10-22T11:39:45.329Z,1344.38
2022-10-22T11:40:45.320Z,2469.38
2022-10-22T11:41:46.306Z,2368.12
2022-10-22T11:42:45.270Z,2767.50
2022-10-22T11:43:45.294Z,2570.62
2022-10-22T11:44:45.312Z,2677.50
2022-10-22T11:45:45.313Z,3223.12
2022-10-22T11:46:45.295Z,2064.38
2022-10-22T11:47:45.275Z,2548.12
2022-10-22T11:48:46.063Z,3003.75
2022-10-22T11:49:45.263Z,1755.00
2022-10-22T11:50:45.238Z,2851.88
2022-10-22T11:51:46.125Z,2570.62
2022-10-22T11:52:45.212Z,3076.88
2022-10-22T11:53:45.196Z,3065.62
2022-10-22T11:54:45.234Z,2761.88
2022-10-22T11:55:45.206Z,1839.38
2022-10-22T11:56:45.205Z,1603.12
2022-10-22T11:57:45.182Z,2587.50
2022-10-22T11:58:45.176Z,2283.75
2022-10-22T11:59:45.176Z,720.00
2022-10-22T12:00:45.166Z,939.38
2022-10-22T12:01:45.243Z,675.00
2022-10-22T12:02:45.347Z,1771.88
2022-10-22T12:03:45.145Z,1091.25
2022-10-22T12:04:45.275Z,3279.38
2022-10-22T12:05:45.120Z,3054.38
2022-10-22T12:06:45.144Z,2767.50
2022-10-22T12:07:45.114Z,1597.50
2022-10-22T12:08:45.150Z,1046.25
2022-10-22T12:09:45.124Z,1974.38
2022-10-22T12:10:45.107Z,568.12
2022-10-22T12:11:45.093Z,466.88
2022-10-22T12:12:45.121Z,489.38
2022-10-22T12:13:45.084Z,3015.00
2022-10-22T12:14:45.079Z,466.88
2022-10-22T12:15:45.195Z,410.62
2022-10-22T12:16:55.613Z,371.25
2022-10-22T12:17:47.081Z,641.25
2022-10-22T12:18:45.057Z,360.00
2022-10-22T12:19:45.045Z,331.88
2022-10-22T12:20:45.047Z,270.00
2022-10-22T12:21:45.056Z,450.00
2022-10-22T12:22:45.044Z,765.00
2022-10-22T12:23:45.201Z,2289.38
2022-10-22T12:24:45.046Z,2581.88
2022-10-22T12:25:46.006Z,2553.75
2022-10-22T12:26:45.006Z,2700.00
2022-10-22T12:27:45.075Z,2593.12
2022-10-22T12:28:45.027Z,2171.25
2022-10-22T12:29:45.036Z,1996.88
2022-10-22T12:30:44.970Z,2413.12
2022-10-22T12:31:44.957Z,601.88
2022-10-22T12:32:44.971Z,545.62
2022-10-22T12:33:44.950Z,652.50
2022-10-22T12:34:45.137Z,2413.12
2022-10-22T12:35:45.629Z,2514.38
2022-10-22T12:36:44.934Z,2216.25
2022-10-22T12:37:45.194Z,2362.50
2022-10-22T12:38:44.933Z,2503.12
2022-10-22T12:39:44.906Z,2846.25
2022-10-22T12:40:47.684Z,2362.50
2022-10-22T12:41:44.935Z,2340.00
2022-10-22T12:42:44.881Z,2446.88
2022-10-22T12:43:44.878Z,2536.88
2022-10-22T12:44:44.913Z,2368.12
2022-10-22T12:45:44.884Z,2587.50
2022-10-22T12:46:44.895Z,2705.62
2022-10-22T12:47:44.861Z,2745.00
2022-10-22T12:48:44.889Z,945.00
2022-10-22T12:49:44.902Z,1288.12
2022-10-22T12:50:44.866Z,585.00
2022-10-22T12:51:44.844Z,691.88
2022-10-22T12:52:44.845Z,2700.00
2022-10-22T12:53:44.865Z,2430.00
2022-10-22T12:54:44.833Z,2255.62
2022-10-22T12:55:44.826Z,2362.50
2022-10-22T12:56:44.813Z,1546.88
2022-10-22T12:57:44.827Z,1575.00
2022-10-22T12:58:44.827Z,1147.50
2022-10-22T12:59:48.824Z,365.62
2022-10-22T13:00:46.889Z,911.25
2022-10-22T13:01:44.788Z,2328.75
2022-10-22T13:02:44.786Z,618.75
2022-10-22T13:03:44.801Z,596.25
2022-10-22T13:04:44.801Z,365.62
2022-10-22T13:05:44.764Z,264.38
2022-10-22T13:06:46.124Z,253.12
2022-10-22T13:07:44.760Z,241.88
2022-10-22T13:08:46.733Z,236.25
2022-10-22T13:09:44.737Z,236.25
2022-10-22T13:10:44.736Z,236.25
2022-10-22T13:11:44.738Z,213.75
2022-10-22T13:12:44.721Z,196.88
2022-10-22T13:13:44.763Z,185.62
2022-10-22T13:14:44.736Z,174.38
2022-10-22T13:15:44.701Z,157.50
2022-10-22T13:16:44.714Z,140.62
2022-10-22T13:17:45.061Z,118.12
2022-10-22T13:18:44.713Z,95.62
2022-10-22T13:19:44.700Z,78.75
2022-10-22T13:20:44.688Z,67.50
2022-10-22T13:21:44.675Z,61.88
2022-10-22T13:22:44.657Z,56.25
2022-10-22T13:23:44.768Z,61.88
2022-10-22T13:24:45.056Z,67.50
2022-10-22T13:25:44.661Z,73.12
2022-10-22T13:26:44.623Z,73.12
2022-10-22T13:27:44.662Z,84.38
2022-10-22T13:28:44.623Z,95.62
2022-10-22T13:29:44.628Z,106.88
2022-10-22T13:30:44.589Z,106.88
2022-10-22T13:31:44.686Z,106.88
2022-10-22T13:32:44.606Z,101.25
2022-10-22T13:33:44.649Z,101.25
2022-10-22T13:34:44.831Z,101.25
2022-10-22T13:35:45.668Z,112.50
2022-10-22T13:36:44.597Z,129.38
2022-10-22T13:37:44.593Z,140.62
2022-10-22T13:38:44.565Z,146.25
2022-10-22T13:39:44.553Z,146.25
2022-10-22T13:40:44.547Z,140.62
2022-10-22T13:41:44.549Z,123.75
2022-10-22T13:42:44.812Z,101.25
2022-10-22T13:43:44.523Z,90.00
2022-10-22T13:44:44.545Z,90.00
2022-10-22T13:45:44.512Z,101.25
2022-10-22T13:46:44.512Z,106.88
2022-10-22T13:47:44.501Z,112.50
2022-10-22T13:48:44.521Z,112.50
2022-10-22T13:49:44.656Z,118.12
2022-10-22T13:50:44.489Z,123.75
2022-10-22T13:51:44.473Z,151.88
2022-10-22T13:52:44.523Z,168.75
2022-10-22T13:53:44.482Z,191.25
2022-10-22T13:54:46.905Z,202.50
2022-10-22T13:55:44.453Z,202.50
2022-10-22T13:56:44.497Z,191.25
2022-10-22T13:57:44.476Z,185.62
2022-10-22T13:58:44.473Z,180.00
2022-10-22T13:59:44.465Z,180.00
2022-10-22T14:00:44.584Z,180.00
2022-10-22T14:01:44.498Z,191.25
2022-10-22T14:02:44.539Z,196.88
2022-10-22T14:03:44.451Z,208.12
2022-10-22T14:04:44.419Z,225.00
2022-10-22T14:05:44.412Z,236.25
2022-10-22T14:06:44.421Z,241.88
2022-10-22T14:07:44.667Z,241.88
2022-10-22T14:08:44.467Z,247.50
2022-10-22T14:09:44.375Z,275.62
2022-10-22T14:10:44.475Z,292.50
2022-10-22T14:11:44.407Z,298.12
2022-10-22T14:12:44.384Z,286.88
2022-10-22T14:13:44.359Z,275.62
2022-10-22T14:14:44.437Z,275.62
2022-10-22T14:15:44.363Z,225.00
2022-10-22T14:16:44.372Z,196.88
2022-10-22T14:17:44.578Z,185.62
2022-10-22T14:18:44.340Z,185.62
2022-10-22T14:19:44.340Z,180.00
2022-10-22T14:20:44.310Z,180.00
2022-10-22T14:21:44.328Z,174.38
2022-10-22T14:22:44.300Z,168.75
2022-10-22T14:23:44.316Z,163.12
2022-10-22T14:24:44.292Z,157.50
2022-10-22T14:25:44.374Z,163.12
2022-10-22T14:26:44.349Z,163.12
2022-10-22T14:27:44.409Z,180.00
2022-10-22T14:29:07.974Z,202.50
2022-10-22T14:29:46.269Z,213.75
2022-10-22T14:30:44.259Z,241.88
2022-10-22T14:31:44.890Z,326.25
2022-10-22T14:32:44.321Z,326.25
2022-10-22T14:33:44.229Z,225.00
2022-10-22T14:34:44.238Z,309.38
2022-10-22T14:35:44.223Z,225.00
2022-10-22T14:36:44.411Z,230.62
2022-10-22T14:37:45.292Z,270.00
2022-10-22T14:38:44.214Z,236.25
2022-10-22T14:39:44.221Z,225.00
2022-10-22T14:40:44.209Z,202.50
2022-10-22T14:41:44.203Z,180.00
2022-10-22T14:42:44.415Z,168.75
2022-10-22T14:43:44.172Z,157.50
2022-10-22T14:44:44.205Z,146.25
2022-10-22T14:45:44.224Z,146.25
2022-10-22T14:46:44.469Z,146.25
2022-10-22T14:47:44.168Z,157.50
2022-10-22T14:48:44.160Z,185.62
2022-10-22T14:49:44.280Z,258.75
2022-10-22T14:50:45.163Z,793.12
2022-10-22T14:51:44.134Z,950.62
2022-10-22T14:52:44.547Z,1102.50
2022-10-22T14:53:44.126Z,1040.62
2022-10-22T14:54:44.141Z,900.00
2022-10-22T14:55:44.139Z,781.88
2022-10-22T14:56:44.107Z,641.25
2022-10-22T14:57:44.562Z,489.38
2022-10-22T14:58:44.093Z,551.25
2022-10-22T14:59:44.101Z,624.38
2022-10-22T15:00:44.102Z,331.88
2022-10-22T15:01:44.070Z,157.50
2022-10-22T15:02:44.444Z,151.88
2022-10-22T15:03:44.057Z,163.12
2022-10-22T15:04:44.054Z,360.00
2022-10-22T15:05:44.430Z,416.25
2022-10-22T15:06:44.042Z,388.12
2022-10-22T15:07:44.364Z,511.88
2022-10-22T15:08:44.102Z,320.62
2022-10-22T15:09:44.035Z,393.75
2022-10-22T15:10:44.013Z,275.62
2022-10-22T15:11:44.027Z,140.62
2022-10-22T15:12:43.995Z,129.38
2022-10-22T15:13:43.995Z,118.12
2022-10-22T15:14:44.007Z,118.12
2022-10-22T15:15:43.979Z,112.50
2022-10-22T15:16:44.023Z,106.88
2022-10-22T15:17:44.274Z,95.62
2022-10-22T15:18:43.955Z,90.00
2022-10-22T15:19:44.011Z,84.38
2022-10-22T15:20:43.975Z,90.00
2022-10-22T15:21:43.968Z,84.38
2022-10-22T15:22:44.194Z,196.88
2022-10-22T15:23:43.922Z,337.50
2022-10-22T15:24:43.946Z,292.50
2022-10-22T15:25:43.916Z,292.50
2022-10-22T15:26:43.902Z,286.88
2022-10-22T15:27:47.589Z,275.62
2022-10-22T15:28:45.890Z,258.75
2022-10-22T15:29:43.878Z,230.62
2022-10-22T15:30:43.889Z,202.50
2022-10-22T15:31:43.962Z,225.00
2022-10-22T15:32:44.064Z,241.88
2022-10-22T15:33:43.865Z,163.12
2022-10-22T15:34:43.869Z,84.38
2022-10-22T15:35:43.889Z,73.12
2022-10-22T15:36:43.842Z,67.50
2022-10-22T15:37:43.965Z,67.50
2022-10-22T15:38:43.837Z,61.88
2022-10-22T15:39:43.856Z,61.88
2022-10-22T15:40:43.821Z,56.25
2022-10-22T15:41:43.813Z,56.25
2022-10-22T15:42:44.033Z,56.25
2022-10-22T15:43:44.663Z,50.62
2022-10-22T15:44:43.803Z,50.62
2022-10-22T15:45:43.790Z,45.00
2022-10-22T15:46:43.891Z,45.00
2022-10-22T15:47:47.305Z,45.00
2022-10-22T15:48:44.809Z,45.00
2022-10-22T15:49:43.775Z,45.00
2022-10-22T15:50:43.806Z,39.38
2022-10-22T15:51:43.755Z,39.38
2022-10-22T15:52:43.747Z,39.38
2022-10-22T15:53:43.810Z,33.75
2022-10-22T15:54:43.873Z,33.75
2022-10-22T15:55:43.755Z,33.75
2022-10-22T15:56:43.775Z,28.12
2022-10-22T15:57:44.463Z,28.12
2022-10-22T15:58:43.847Z,28.12
2022-10-22T15:59:43.761Z,22.50
2022-10-22T16:00:43.792Z,22.50
2022-10-22T16:01:43.717Z,22.50
2022-10-22T16:02:43.717Z,16.88
2022-10-22T16:03:43.736Z,16.88
2022-10-22T16:04:43.687Z,16.88
2022-10-22T16:05:43.729Z,16.88
2022-10-22T16:06:43.691Z,11.25
2022-10-22T16:07:44.038Z,11.25
2022-10-22T16:08:43.738Z,11.25
2022-10-22T16:09:43.669Z,11.25
2022-10-22T16:10:43.649Z,11.25
2022-10-22T16:11:43.699Z,11.25
2022-10-22T16:12:43.748Z,5.62
2022-10-22T16:13:43.661Z,5.62
2022-10-22T16:14:43.636Z,5.62
2022-10-22T16:15:43.601Z,5.62
2022-10-22T16:16:43.627Z,5.62
2022-10-22T16:17:43.600Z,5.62
2022-10-22T16:18:43.584Z,5.62
2022-10-22T16:19:43.856Z,5.62
2022-10-22T16:20:43.611Z,0.00
2022-10-22T16:21:43.704Z,0.00
2022-10-22T16:22:43.713Z,0.00
2022-10-22T16:23:43.553Z,0.00
2022-10-22T16:24:43.569Z,0.00
2022-10-22T16:25:43.552Z,0.00
2022-10-22T16:26:43.664Z,0.00
2022-10-22T16:27:44.188Z,0.00
2022-10-22T16:28:43.520Z,0.00
2022-10-22T16:29:43.490Z,0.00
2022-10-22T16:30:43.522Z,0.00
2022-10-22T16:31:43.534Z,0.00
2022-10-22T16:32:43.742Z,0.00
2022-10-22T16:33:46.453Z,0.00
2022-10-22T16:34:45.488Z,0.00
2022-10-22T16:35:43.504Z,0.00
2022-10-22T16:36:43.479Z,0.00
2022-10-22T16:37:43.986Z,0.00
2022-10-22T16:38:43.446Z,0.00
2022-10-22T16:39:43.470Z,0.00
2022-10-22T16:40:43.486Z,0.00
2022-10-22T16:41:43.488Z,0.00
2022-10-22T16:42:43.433Z,0.00
2022-10-22T16:43:43.412Z,0.00
2022-10-22T16:44:43.404Z,0.00
2022-10-22T16:45:43.448Z,0.00
2022-10-22T16:46:43.415Z,0.00
2022-10-22T16:47:43.555Z,0.00
2022-10-22T16:48:43.432Z,0.00
2022-10-22T16:49:43.508Z,0.00
2022-10-22T16:50:43.432Z,0.00
2022-10-22T16:51:43.356Z,0.00
2022-10-22T16:52:43.381Z,0.00
2022-10-22T16:53:43.377Z,0.00
2022-10-22T16:54:43.332Z,0.00
2022-10-22T16:55:43.312Z,0.00
2022-10-22T16:56:43.333Z,0.00
2022-10-22T16:57:43.610Z,0.00
2022-10-22T16:58:43.309Z,0.00
2022-10-22T16:59:43.301Z,0.00
2022-10-22T17:00:43.390Z,0.00
2022-10-22T17:01:43.345Z,0.00
2022-10-22T17:02:43.658Z,0.00
2022-10-22T17:03:43.282Z,0.00
2022-10-22T17:04:43.262Z,0.00
2022-10-22T17:05:43.281Z,0.00
2022-10-22T17:06:43.256Z,0.00
2022-10-22T17:07:43.244Z,0.00
2022-10-22T17:08:43.361Z,0.00
2022-10-22T17:09:43.252Z,0.00
2022-10-22T17:10:43.259Z,0.00
2022-10-22T17:11:44.943Z,0.00
2022-10-22T17:12:43.489Z,0.00
2022-10-22T17:13:43.214Z,0.00
2022-10-22T17:14:43.433Z,0.00
2022-10-22T17:15:43.226Z,0.00
2022-10-22T17:16:43.206Z,0.00
2022-10-22T17:17:43.212Z,0.00
2022-10-22T17:18:43.270Z,0.00
2022-10-22T17:19:43.197Z,0.00
2022-10-22T17:20:43.247Z,0.00
2022-10-22T17:21:43.229Z,0.00
2022-10-22T17:22:43.559Z,0.00
2022-10-22T17:23:43.161Z,0.00
2022-10-22T17:24:43.446Z,0.00
2022-10-22T17:25:43.258Z,0.00
2022-10-22T17:26:43.154Z,0.00
2022-10-22T17:27:43.450Z,0.00
2022-10-22T17:28:43.676Z,0.00